Time;durP1;ratioP1;P1;durP2;ratioP2;P2;SDS_P1;SDS_P2;PMS_P1;PMS_P2;Temp;Humidity;BMP_temperature;BMP_pressure;BME280_temperature;BME280_humidity;BME280_pressure;Samples;Min_cycle;Max_cycle;Signal;HPM_P1;HPM_P2
2021/03/04 00:01:20;;;;;;;316.63;95.22;;;;;;;5.74;100.00;102387.56;5222561;28;20706;-67
2021/03/04 00:03:50;;;;;;;243.18;80.90;;;;;;;5.69;100.00;102391.34;5221265;28;20473;-68
2021/03/04 00:06:21;;;;;;;262.77;83.95;;;;;;;5.61;100.00;102390.13;5222468;28;20029;-68
2021/03/04 00:08:51;;;;;;;260.65;83.88;;;;;;;5.67;100.00;102385.28;5222313;28;20020;-68
2021/03/04 00:11:22;;;;;;;252.45;79.57;;;;;;;5.70;100.00;102392.22;5221687;28;20500;-67
2021/03/04 00:13:52;;;;;;;290.77;85.95;;;;;;;5.72;100.00;102385.84;5221728;28;20013;-68
2021/03/04 00:16:23;;;;;;;273.98;83.80;;;;;;;5.74;100.00;102384.88;5212126;28;20539;-68
2021/03/04 00:18:53;;;;;;;277.65;83.78;;;;;;;5.82;100.00;102374.59;5222077;28;20033;-68
2021/03/04 00:21:24;;;;;;;272.27;82.20;;;;;;;5.94;100.00;102368.53;5222032;28;20025;-67
2021/03/04 00:23:54;;;;;;;307.77;85.93;;;;;;;6.02;100.00;102376.00;5221301;28;20544;-68
2021/03/04 00:26:24;;;;;;;298.15;84.95;;;;;;;5.97;100.00;102378.97;5222040;28;20036;-68
2021/03/04 00:28:55;;;;;;;334.27;87.00;;;;;;;5.88;100.00;102380.41;5221905;28;20020;-68
2021/03/04 00:31:26;;;;;;;317.20;87.35;;;;;;;5.88;100.00;102390.19;5216726;28;20030;-68
2021/03/04 00:33:57;;;;;;;362.08;88.47;;;;;;;5.86;100.00;102394.75;5217494;28;20029;-67
2021/03/04 00:36:27;;;;;;;345.95;80.55;;;;;;;5.92;100.00;102395.25;5223519;28;20052;-67
2021/03/04 00:38:58;;;;;;;503.55;86.32;;;;;;;5.84;100.00;102392.19;5226625;28;20025;-68
2021/03/04 00:41:29;;;;;;;493.40;89.15;;;;;;;5.76;100.00;102402.47;5226185;28;20482;-68
2021/03/04 00:43:59;;;;;;;535.25;91.32;;;;;;;5.67;100.00;102397.72;5225436;28;20036;-68
2021/03/04 00:46:30;;;;;;;307.75;79.50;;;;;;;5.67;100.00;102389.72;5226025;28;20029;-68
2021/03/04 00:49:02;;;;;;;286.25;77.88;;;;;;;5.69;100.00;102396.69;5225515;28;20052;-67
2021/03/04 00:51:32;;;;;;;436.52;85.72;;;;;;;5.67;100.00;102397.72;5226414;28;20564;-68
2021/03/04 00:54:03;;;;;;;516.88;90.15;;;;;;;5.60;100.00;102397.25;5225794;28;20228;-68
2021/03/04 00:56:34;;;;;;;309.38;79.28;;;;;;;5.59;100.00;102403.53;5225903;28;20040;-68
2021/03/04 00:59:04;;;;;;;362.00;80.57;;;;;;;5.59;100.00;102394.69;5225259;28;20017;-68
2021/03/04 01:01:35;;;;;;;481.08;88.28;;;;;;;5.58;100.00;102396.50;5225938;28;20024;-68
2021/03/04 01:04:05;;;;;;;279.08;76.72;;;;;;;5.70;100.00;102392.22;5225046;28;20159;-68
2021/03/04 01:06:36;;;;;;;246.27;72.45;;;;;;;5.73;100.00;102386.69;5226017;28;20494;-68
2021/03/04 01:09:06;;;;;;;227.30;70.78;;;;;;;5.74;100.00;102383.09;5225142;28;20500;-67
2021/03/04 01:11:37;;;;;;;246.57;70.95;;;;;;;5.75;100.00;102378.59;5225114;28;20025;-68
2021/03/04 01:14:07;;;;;;;220.95;67.47;;;;;;;5.71;100.00;102378.78;5224786;28;20152;-68
2021/03/04 01:16:38;;;;;;;419.60;75.32;;;;;;;5.61;100.00;102379.47;5214449;28;20029;-68
2021/03/04 01:19:08;;;;;;;332.48;72.30;;;;;;;5.61;100.00;102382.13;5225595;28;20141;-67
2021/03/04 01:21:38;;;;;;;342.75;73.65;;;;;;;5.56;100.00;102381.56;5225363;28;20027;-68
2021/03/04 01:24:09;;;;;;;360.05;72.25;;;;;;;5.57;100.00;102377.94;5224279;28;20478;-68
2021/03/04 01:26:39;;;;;;;373.75;77.50;;;;;;;5.54;100.00;102375.50;5225206;28;20021;-68
2021/03/04 01:29:10;;;;;;;309.80;74.72;;;;;;;5.53;100.00;102369.31;5220095;28;20036;-68
2021/03/04 01:31:40;;;;;;;315.95;74.63;;;;;;;5.50;100.00;102356.19;5214822;28;20398;-68
2021/03/04 01:34:11;;;;;;;350.10;75.72;;;;;;;5.52;100.00;102362.25;5217497;28;20155;-68
2021/03/04 01:36:41;;;;;;;257.48;69.65;;;;;;;5.50;100.00;102356.19;5224550;28;20032;-68
2021/03/04 01:39:12;;;;;;;258.85;67.10;;;;;;;5.53;100.00;102348.03;5225356;28;20033;-68
2021/03/04 01:41:42;;;;;;;237.05;67.45;;;;;;;5.52;100.00;102332.97;5225502;28;20021;-68
2021/03/04 01:44:13;;;;;;;256.45;69.82;;;;;;;5.57;100.00;102330.91;5222830;28;20021;-68
2021/03/04 01:46:43;;;;;;;322.35;75.55;;;;;;;5.55;100.00;102337.28;5224838;28;20502;-68
2021/03/04 01:49:13;;;;;;;234.98;67.25;;;;;;;5.55;100.00;102330.13;5224204;28;20021;-68
2021/03/04 01:51:44;;;;;;;225.90;67.30;;;;;;;5.69;100.00;102303.50;5225122;28;20033;-68
2021/03/04 01:54:16;;;;;;;319.85;71.82;;;;;;;5.62;100.00;102304.84;5224102;28;20095;-68
2021/03/04 01:56:46;;;;;;;232.45;67.45;;;;;;;5.51;100.00;102295.81;5225175;28;20029;-68
2021/03/04 01:59:17;;;;;;;230.43;67.30;;;;;;;5.56;100.00;102288.38;5224329;28;20028;-67
2021/03/04 02:01:49;;;;;;;237.00;68.43;;;;;;;5.58;100.00;102290.03;5224117;28;20028;-68
2021/03/04 02:04:19;;;;;;;233.07;66.38;;;;;;;5.54;100.00;102291.16;5223987;28;20025;-68
2021/03/04 02:07:11;;;;;;;246.88;63.65;;;;;;;5.46;100.00;102288.97;5224606;28;20389;-68
2021/03/04 02:09:53;;;;;;;245.07;65.75;;;;;;;5.43;100.00;102299.84;5224499;28;20060;-68
2021/03/04 02:12:32;;;;;;;215.35;68.03;;;;;;;5.39;100.00;102293.00;5224329;28;20025;-68
2021/03/04 02:15:08;;;;;;;219.05;64.28;;;;;;;5.49;100.00;102285.28;5224112;28;20494;-68
2021/03/04 02:17:44;;;;;;;204.73;62.90;;;;;;;5.53;100.00;102280.63;5224324;28;20024;-68
2021/03/04 02:20:28;;;;;;;209.32;63.88;;;;;;;5.62;100.00;102266.69;5224136;28;20048;-67
2021/03/04 02:23:08;;;;;;;215.48;62.97;;;;;;;5.62;100.00;102251.59;5239565;28;20060;-68
2021/03/04 02:25:55;;;;;;;220.77;64.07;;;;;;;5.56;100.00;102261.78;5224380;28;20017;-68
2021/03/04 02:28:28;;;;;;;205.05;64.55;;;;;;;5.55;100.00;102249.41;5224227;28;20107;-67
2021/03/04 02:31:08;;;;;;;213.00;64.07;;;;;;;5.51;100.00;102248.75;5222191;28;20075;-68
2021/03/04 02:33:39;;;;;;;242.88;63.20;;;;;;;5.46;100.00;102250.84;5211845;28;20036;-68
2021/03/04 02:36:11;;;;;;;289.58;66.53;;;;;;;5.32;100.00;102273.06;5223956;28;20088;-67
2021/03/04 02:38:43;;;;;;;305.45;69.18;;;;;;;5.26;100.00;102270.75;5224207;28;20028;-68
2021/03/04 02:41:15;;;;;;;343.50;77.72;;;;;;;5.27;100.00;102272.50;5223250;28;20550;-68
2021/03/04 02:43:46;;;;;;;222.48;66.28;;;;;;;5.29;100.00;102259.94;5223420;28;20063;-68
2021/03/04 02:46:18;;;;;;;293.25;69.25;;;;;;;5.25;100.00;102261.06;5223660;28;20024;-68
2021/03/04 02:48:49;;;;;;;294.17;71.43;;;;;;;5.30;100.00;102266.97;5223764;28;20021;-68
2021/03/04 02:51:20;;;;;;;263.23;66.50;;;;;;;5.27;100.00;102260.97;5223875;28;20028;-69
2021/03/04 02:53:52;;;;;;;272.70;73.68;;;;;;;5.25;100.00;102271.72;5222998;28;20071;-68
2021/03/04 02:56:25;;;;;;;288.17;73.05;;;;;;;5.32;100.00;102273.06;5223369;28;20033;-68
2021/03/04 02:59:01;;;;;;;282.33;74.00;;;;;;;5.29;100.00;102275.91;5223528;28;20071;-68
2021/03/04 03:01:32;;;;;;;273.92;74.35;;;;;;;5.26;100.00;102248.63;5223721;28;20029;-68
2021/03/04 03:04:04;;;;;;;267.52;71.85;;;;;;;5.29;100.00;102249.28;5222658;28;20477;-69
2021/03/04 03:06:36;;;;;;;282.45;77.45;;;;;;;5.26;100.00;102254.78;5223475;28;20029;-68
2021/03/04 03:09:08;;;;;;;306.95;76.28;;;;;;;5.22;100.00;102237.34;5223566;28;20440;-68
2021/03/04 03:11:38;;;;;;;317.02;75.22;;;;;;;5.20;100.00;102234.75;5223187;28;20048;-69
2021/03/04 03:14:10;;;;;;;292.40;76.18;;;;;;;5.21;100.00;102235.59;5221725;28;20021;-69
2021/03/04 03:16:40;;;;;;;355.45;82.95;;;;;;;5.23;100.00;102236.38;5222147;28;20051;-68
2021/03/04 03:19:11;;;;;;;303.92;79.40;;;;;;;5.23;100.00;102216.91;5223359;28;20029;-68
2021/03/04 03:21:41;;;;;;;396.45;84.05;;;;;;;5.24;100.00;102223.94;5223170;28;20044;-68
2021/03/04 03:24:12;;;;;;;262.40;73.90;;;;;;;5.30;100.00;102212.88;5222579;28;20032;-68
2021/03/04 03:26:45;;;;;;;362.75;81.10;;;;;;;5.29;100.00;102208.53;5223072;28;20104;-68
2021/03/04 03:29:15;;;;;;;262.75;71.22;;;;;;;5.30;100.00;102205.75;5222070;28;20469;-68
2021/03/04 03:31:49;;;;;;;306.63;76.55;;;;;;;5.34;100.00;102209.94;5211968;28;20240;-67
2021/03/04 03:34:20;;;;;;;250.20;66.38;;;;;;;5.41;100.00;102200.59;5214984;28;20020;-68
2021/03/04 03:36:54;;;;;;;231.65;63.88;;;;;;;5.36;100.00;102209.81;5222771;28;20025;-68
2021/03/04 03:39:25;;;;;;;284.43;70.57;;;;;;;5.31;100.00;102203.94;5222726;28;20041;-68
2021/03/04 03:41:55;;;;;;;218.15;61.60;;;;;;;5.31;100.00;102202.13;5222746;28;20040;-69
2021/03/04 03:44:28;;;;;;;244.95;64.80;;;;;;;5.38;100.00;102195.47;5221927;28;20035;-68
2021/03/04 03:47:00;;;;;;;213.57;61.92;;;;;;;5.36;100.00;102197.38;5222602;28;20497;-69
2021/03/04 03:49:32;;;;;;;197.57;57.17;;;;;;;5.37;100.00;102203.53;5222592;28;20174;-68
2021/03/04 03:52:02;;;;;;;224.43;64.60;;;;;;;5.26;100.00;102206.91;5222365;28;20021;-69
2021/03/04 03:54:34;;;;;;;217.63;60.72;;;;;;;5.23;100.00;102198.28;5221651;28;20393;-68
2021/03/04 03:57:05;;;;;;;231.20;59.05;;;;;;;5.23;100.00;102188.50;5223230;28;20183;-69
2021/03/04 03:59:37;;;;;;;230.93;61.45;;;;;;;5.23;100.00;102193.81;5222424;28;20497;-69
2021/03/04 04:02:08;;;;;;;234.75;60.35;;;;;;;5.30;100.00;102186.28;5222276;28;20020;-68
2021/03/04 04:04:38;;;;;;;216.35;57.53;;;;;;;5.37;100.00;102184.91;5221297;28;20021;-69
2021/03/04 04:07:12;;;;;;;212.30;57.55;;;;;;;5.29;100.00;102188.09;5221544;28;20032;-68
2021/03/04 04:09:45;;;;;;;218.35;58.75;;;;;;;5.21;100.00;102203.69;5222386;28;20025;-68
2021/03/04 04:12:16;;;;;;;205.13;53.25;;;;;;;5.26;100.00;102206.91;5222091;28;20029;-68
2021/03/04 04:14:46;;;;;;;196.80;53.50;;;;;;;5.28;100.00;102223.63;5216692;28;20079;-69
2021/03/04 04:17:20;;;;;;;211.23;55.42;;;;;;;5.19;100.00;102224.22;5210064;28;20032;-68
2021/03/04 04:19:50;;;;;;;183.30;55.60;;;;;;;5.19;100.00;102217.09;5222163;28;20056;-69
2021/03/04 04:22:21;;;;;;;203.63;58.20;;;;;;;5.14;100.00;102213.03;5222185;28;20102;-69
2021/03/04 04:24:51;;;;;;;188.85;54.15;;;;;;;5.19;100.00;102210.91;5221584;28;20060;-68
2021/03/04 04:27:22;;;;;;;213.82;56.42;;;;;;;5.16;100.00;102211.09;5222058;28;20017;-69
2021/03/04 04:29:52;;;;;;;194.13;54.20;;;;;;;5.13;100.00;102201.53;5222017;28;20105;-69
2021/03/04 04:32:23;;;;;;;223.82;57.05;;;;;;;5.16;100.00;102208.44;5208774;28;20063;-69
2021/03/04 04:34:53;;;;;;;226.18;57.25;;;;;;;5.13;100.00;102208.66;5220049;28;20039;-68
2021/03/04 04:37:24;;;;;;;200.10;53.00;;;;;;;5.15;100.00;102196.09;5222114;28;20104;-69
2021/03/04 04:39:54;;;;;;;201.77;53.97;;;;;;;5.14;100.00;102197.06;5221499;28;20064;-69
2021/03/04 04:42:25;;;;;;;207.02;59.58;;;;;;;5.12;100.00;102189.19;5221112;28;20472;-69
2021/03/04 04:44:55;;;;;;;205.68;56.97;;;;;;;5.13;100.00;102190.03;5221963;28;20021;-69
2021/03/04 04:47:26;;;;;;;215.07;56.33;;;;;;;5.14;100.00;102183.75;5221834;28;20025;-69
2021/03/04 04:49:56;;;;;;;212.95;57.03;;;;;;;5.20;100.00;102181.53;5222040;28;20473;-68
2021/03/04 04:52:27;;;;;;;211.13;56.22;;;;;;;5.22;100.00;102172.59;5221436;28;20040;-68
2021/03/04 04:54:57;;;;;;;217.23;62.72;;;;;;;5.16;100.00;102169.38;5221220;28;20029;-68
2021/03/04 04:57:28;;;;;;;206.07;57.25;;;;;;;5.13;100.00;102177.59;5221785;28;20424;-68
2021/03/04 04:59:58;;;;;;;203.05;54.97;;;;;;;5.14;100.00;102181.09;5222123;28;20056;-69
2021/03/04 05:02:29;;;;;;;221.20;57.33;;;;;;;5.20;100.00;102175.38;5221162;28;20102;-69
2021/03/04 05:05:00;;;;;;;221.05;57.58;;;;;;;5.18;100.00;102162.19;5221397;28;20021;-68
2021/03/04 05:07:31;;;;;;;231.35;59.60;;;;;;;5.16;100.00;102160.56;5221659;28;20017;-69
2021/03/04 05:10:03;;;;;;;229.13;57.92;;;;;;;5.16;100.00;102165.88;5221455;28;20055;-68
2021/03/04 05:12:35;;;;;;;209.23;55.55;;;;;;;5.19;100.00;102163.88;5221244;28;20255;-68
2021/03/04 05:15:07;;;;;;;198.90;53.80;;;;;;;5.24;100.00;102166.25;5221293;28;20021;-67
2021/03/04 05:17:38;;;;;;;201.50;53.75;;;;;;;5.30;100.00;102159.66;5221133;28;20401;-68
2021/03/04 05:20:10;;;;;;;192.38;51.55;;;;;;;5.29;100.00;102156.16;5224759;28;20505;-68
2021/03/04 05:22:40;;;;;;;185.85;49.72;;;;;;;5.28;100.00;102153.59;5224110;28;20043;-68
2021/03/04 05:25:11;;;;;;;176.23;49.75;;;;;;;5.35;100.00;102154.91;5224703;28;20549;-68
2021/03/04 05:27:42;;;;;;;178.82;50.75;;;;;;;5.35;100.00;102152.25;5225406;28;20222;-68
2021/03/04 05:30:13;;;;;;;177.07;48.88;;;;;;;5.30;100.00;102141.03;5224787;28;20021;-67
2021/03/04 05:32:43;;;;;;;167.70;48.17;;;;;;;5.26;100.00;102142.19;5224191;28;20029;-69
2021/03/04 05:35:14;;;;;;;181.23;49.45;;;;;;;5.28;100.00;102141.16;5225114;28;20380;-69
2021/03/04 05:37:44;;;;;;;170.60;47.60;;;;;;;5.32;100.00;102137.34;5225123;28;20020;-68
2021/03/04 05:40:15;;;;;;;198.18;52.35;;;;;;;5.24;100.00;102138.78;5225086;28;20029;-68
2021/03/04 05:42:46;;;;;;;205.40;52.08;;;;;;;5.16;100.00;102136.63;5223891;28;20033;-71
2021/03/04 05:45:19;;;;;;;203.02;51.22;;;;;;;5.12;100.00;102138.63;5224887;28;20131;-71
2021/03/04 05:47:50;;;;;;;223.38;51.58;;;;;;;5.09;100.00;102137.97;5225038;28;20029;-71
2021/03/04 05:50:23;;;;;;;213.75;54.15;;;;;;;5.10;100.00;102140.53;5225061;28;20477;-71
2021/03/04 05:52:58;;;;;;;217.68;54.38;;;;;;;5.10;100.00;102140.53;5239095;28;20104;-71
2021/03/04 05:55:29;;;;;;;202.95;50.00;;;;;;;5.17;100.00;102127.66;5223059;28;20485;-67
2021/03/04 05:58:01;;;;;;;209.18;50.85;;;;;;;5.29;100.00;102115.41;5225138;28;20104;-68
2021/03/04 06:00:32;;;;;;;195.18;45.80;;;;;;;5.28;100.00;102119.00;5224509;28;20025;-68
2021/03/04 06:03:05;;;;;;;188.85;46.47;;;;;;;5.27;100.00;102117.28;5224804;28;20082;-68
2021/03/04 06:05:35;;;;;;;191.30;47.20;;;;;;;5.30;100.00;102117.09;5223918;28;20376;-68
2021/03/04 06:08:07;;;;;;;187.35;46.45;;;;;;;5.33;100.00;102106.25;5224686;28;20090;-68
2021/03/04 06:10:37;;;;;;;206.95;50.03;;;;;;;5.40;100.00;102107.53;5224231;28;20123;-68
2021/03/04 06:13:08;;;;;;;196.88;44.55;;;;;;;5.32;100.00;102105.41;5224008;28;20100;-68
2021/03/04 06:15:39;;;;;;;191.07;44.33;;;;;;;5.22;100.00;102114.06;5224202;28;20485;-68
2021/03/04 06:18:10;;;;;;;221.00;50.22;;;;;;;5.15;100.00;102113.63;5223994;28;20074;-69
2021/03/04 06:20:42;;;;;;;208.98;48.25;;;;;;;5.08;100.00;102118.50;5224396;28;20024;-68
2021/03/04 06:23:13;;;;;;;202.15;47.67;;;;;;;5.03;100.00;102109.97;5223991;28;20125;-69
2021/03/04 06:25:45;;;;;;;184.20;42.83;;;;;;;5.19;100.00;102104.50;5223958;28;20104;-68
2021/03/04 06:28:15;;;;;;;177.90;43.92;;;;;;;5.18;100.00;102108.97;5223810;28;20025;-68
2021/03/04 06:30:46;;;;;;;164.65;43.55;;;;;;;5.15;100.00;102103.00;5238776;28;20021;-68
2021/03/04 06:33:16;;;;;;;162.55;41.13;;;;;;;5.15;100.00;102103.00;5214490;28;20029;-69
2021/03/04 06:35:46;;;;;;;156.40;39.58;;;;;;;5.13;100.00;102100.44;5224152;28;20111;-68
2021/03/04 06:38:19;;;;;;;138.20;37.38;;;;;;;5.13;100.00;102099.59;5223861;28;20052;-68
2021/03/04 06:40:52;;;;;;;128.88;37.40;;;;;;;5.25;100.00;102097.91;5223401;28;20025;-68
2021/03/04 06:43:24;;;;;;;139.80;37.95;;;;;;;5.20;100.00;102098.22;5223211;28;20481;-68
2021/03/04 06:46:03;;;;;;;124.00;35.85;;;;;;;5.17;100.00;102096.63;5224007;28;20036;-67
2021/03/04 06:48:35;;;;;;;122.45;35.33;;;;;;;5.20;100.00;102100.88;5223825;28;20505;-68
2021/03/04 06:51:06;;;;;;;139.10;38.40;;;;;;;5.11;100.00;102104.97;5223688;28;20496;-69
2021/03/04 06:53:37;;;;;;;135.85;36.28;;;;;;;5.11;100.00;102110.31;5222946;28;20029;-68
2021/03/04 06:56:09;;;;;;;132.10;35.85;;;;;;;5.16;100.00;102107.34;5223134;28;20115;-68
2021/03/04 06:58:41;;;;;;;127.90;34.03;;;;;;;5.15;100.00;102105.66;5223582;28;20020;-68
2021/03/04 07:01:12;;;;;;;145.75;38.25;;;;;;;5.17;100.00;102111.72;5223491;28;20033;-69
2021/03/04 07:03:46;;;;;;;151.98;42.50;;;;;;;5.11;100.00;102114.78;5222249;28;20035;-69
2021/03/04 07:06:19;;;;;;;159.95;40.53;;;;;;;5.05;100.00;102118.69;5223357;28;20064;-68
2021/03/04 07:08:51;;;;;;;166.68;42.55;;;;;;;5.13;100.00;102127.03;5223768;28;20025;-69
2021/03/04 07:11:24;;;;;;;183.38;44.85;;;;;;;5.06;100.00;102124.88;5217902;28;20029;-69
2021/03/04 07:13:56;;;;;;;192.85;45.78;;;;;;;5.05;100.00;102118.69;5220772;28;20385;-69
2021/03/04 07:16:32;;;;;;;188.68;45.40;;;;;;;5.02;100.00;102134.00;5210765;28;20037;-68
2021/03/04 07:19:04;;;;;;;194.82;47.85;;;;;;;4.99;100.00;102128.88;5210026;28;20027;-68
2021/03/04 07:21:43;;;;;;;182.38;44.00;;;;;;;5.07;100.00;102123.91;5222966;28;20031;-68
2021/03/04 07:24:14;;;;;;;176.27;46.22;;;;;;;5.13;100.00;102126.19;5222559;28;20029;-68
2021/03/04 07:26:46;;;;;;;191.02;46.50;;;;;;;5.26;100.00;102123.56;5222589;28;20039;-68
2021/03/04 07:29:17;;;;;;;183.80;42.30;;;;;;;5.24;100.00;102114.84;5223101;28;20067;-69
2021/03/04 07:31:47;;;;;;;191.68;45.85;;;;;;;5.31;100.00;102124.13;5217285;28;20057;-68
2021/03/04 07:34:19;;;;;;;194.85;48.05;;;;;;;5.28;100.00;102119.88;5215871;28;20381;-69
2021/03/04 07:36:51;;;;;;;189.10;47.75;;;;;;;5.22;100.00;102122.06;5222819;28;20017;-68
2021/03/04 07:39:39;;;;;;;203.60;46.83;;;;;;;5.26;100.00;102119.09;5222268;28;20505;-68
2021/03/04 07:42:19;;;;;;;226.43;49.03;;;;;;;5.33;100.00;102125.72;5222870;28;20048;-68
2021/03/04 07:44:51;;;;;;;234.02;52.00;;;;;;;5.31;100.00;102119.66;5209425;28;20082;-68
2021/03/04 07:47:25;;;;;;;218.35;50.10;;;;;;;5.32;100.00;102112.50;5222351;28;20113;-68
2021/03/04 07:49:56;;;;;;;262.95;56.78;;;;;;;5.33;100.00;102117.75;5222435;28;20029;-68
2021/03/04 07:52:26;;;;;;;254.55;56.72;;;;;;;5.38;100.00;102114.78;5222217;28;20470;-68
2021/03/04 07:55:09;;;;;;;277.20;59.30;;;;;;;5.42;100.00;102110.94;5222278;28;20124;-68
2021/03/04 07:57:45;;;;;;;243.65;54.72;;;;;;;5.43;100.00;102097.56;5222336;28;20021;-68
2021/03/04 08:00:16;;;;;;;289.27;60.30;;;;;;;5.44;100.00;102109.91;5222016;28;20041;-67
2021/03/04 08:02:46;;;;;;;250.18;55.17;;;;;;;5.43;100.00;102107.34;5222432;28;20078;-68
2021/03/04 08:05:30;;;;;;;318.75;61.88;;;;;;;5.37;100.00;102115.72;5221896;28;20436;-68
2021/03/04 08:08:13;;;;;;;296.80;59.08;;;;;;;5.40;100.00;102113.72;5222309;28;20052;-69
2021/03/04 08:10:49;;;;;;;296.25;58.30;;;;;;;5.38;100.00;102120.97;5221890;28;20846;-68
2021/03/04 08:13:31;;;;;;;308.98;64.72;;;;;;;5.42;100.00;102110.94;5221458;28;20048;-68
2021/03/04 08:16:11;;;;;;;303.00;60.90;;;;;;;5.45;100.00;102118.72;5222147;28;20116;-68
2021/03/04 08:18:41;;;;;;;299.77;61.78;;;;;;;5.33;100.00;102114.25;5221654;28;20366;-68
2021/03/04 08:21:12;;;;;;;338.40;64.22;;;;;;;5.24;100.00;102115.69;5217250;28;20052;-67
2021/03/04 08:23:43;;;;;;;334.05;63.67;;;;;;;5.26;100.00;102118.25;5221241;28;20036;-68
2021/03/04 08:26:25;;;;;;;319.10;63.58;;;;;;;5.28;100.00;102124.34;5221895;28;20505;-67
2021/03/04 08:29:06;;;;;;;311.75;63.50;;;;;;;5.19;100.00;102131.09;5222164;28;20054;-67
2021/03/04 08:31:45;;;;;;;336.67;66.13;;;;;;;5.24;100.00;102126.34;5220692;28;20039;-68
2021/03/04 08:34:16;;;;;;;348.17;68.60;;;;;;;5.27;100.00;102126.16;5221583;28;20048;-68
2021/03/04 08:36:49;;;;;;;302.33;66.50;;;;;;;5.29;100.00;102121.56;5221792;28;20017;-68
2021/03/04 08:39:22;;;;;;;313.05;64.32;;;;;;;5.32;100.00;102129.34;5221886;28;20078;-68
2021/03/04 08:42:01;;;;;;;330.40;66.03;;;;;;;5.25;100.00;102130.69;5221720;28;20033;-68
2021/03/04 08:44:32;;;;;;;318.60;64.22;;;;;;;5.21;100.00;102137.16;5221376;28;20025;-68
2021/03/04 08:47:02;;;;;;;290.67;61.90;;;;;;;5.19;100.00;102139.09;5221868;28;20691;-68
2021/03/04 08:49:33;;;;;;;299.38;60.15;;;;;;;5.08;100.00;102134.47;5221828;28;20055;-68
2021/03/04 08:52:04;;;;;;;292.80;58.80;;;;;;;5.12;100.00;102135.97;5221115;28;20150;-68
2021/03/04 08:54:34;;;;;;;268.63;57.72;;;;;;;5.12;100.00;102140.41;5223770;28;20039;-68
2021/03/04 08:57:05;;;;;;;284.02;61.30;;;;;;;5.12;100.00;102143.06;5226048;28;20033;-68
2021/03/04 08:59:36;;;;;;;307.88;61.95;;;;;;;5.01;100.00;102133.13;5226172;28;20162;-68
2021/03/04 09:02:14;;;;;;;303.95;63.03;;;;;;;5.03;100.00;102133.91;5223247;28;20103;-68
2021/03/04 09:04:46;;;;;;;311.42;62.72;;;;;;;5.00;100.00;102134.09;5224946;28;20481;-69
2021/03/04 09:07:30;;;;;;;304.17;63.38;;;;;;;5.13;100.00;102126.19;5225230;28;20032;-69
2021/03/04 09:10:04;;;;;;;294.83;61.22;;;;;;;5.03;100.00;102139.22;5225494;28;20021;-69
2021/03/04 09:12:45;;;;;;;286.48;58.70;;;;;;;5.00;100.00;102135.91;5225421;28;20029;-68
2021/03/04 09:15:20;;;;;;;326.58;62.78;;;;;;;5.02;100.00;102136.66;5224736;28;20108;-68
2021/03/04 09:17:50;;;;;;;320.60;64.82;;;;;;;5.04;100.00;102132.09;5225859;28;20025;-68
2021/03/04 09:20:21;;;;;;;316.67;61.15;;;;;;;5.05;100.00;102136.47;5225641;28;20029;-69
2021/03/04 09:22:51;;;;;;;257.95;55.05;;;;;;;5.08;100.00;102125.63;5223853;28;20032;-68
2021/03/04 09:25:22;;;;;;;205.70;48.15;;;;;;;5.10;100.00;102129.88;5225314;28;20021;-68
2021/03/04 09:27:53;;;;;;;236.25;51.45;;;;;;;5.02;100.00;102134.00;5225070;28;20112;-68
2021/03/04 09:30:27;;;;;;;207.18;48.00;;;;;;;4.87;100.00;102128.72;5225446;28;20104;-68
2021/03/04 09:32:58;;;;;;;257.70;51.92;;;;;;;4.79;100.00;102131.00;5210499;28;20021;-68
2021/03/04 09:35:28;;;;;;;235.82;49.50;;;;;;;4.81;100.00;102131.75;5225027;28;20024;-68
2021/03/04 09:38:06;;;;;;;231.93;48.85;;;;;;;4.80;100.00;102140.69;5224352;28;20016;-68
2021/03/04 09:40:37;;;;;;;220.77;44.95;;;;;;;4.83;100.00;102131.69;5225199;28;20033;-68
2021/03/04 09:43:15;;;;;;;242.77;48.60;;;;;;;4.86;100.00;102134.13;5224193;28;20021;-68
2021/03/04 09:45:48;;;;;;;196.32;43.63;;;;;;;4.96;100.00;102137.03;5225000;28;20048;-68
2021/03/04 09:48:31;;;;;;;163.45;38.97;;;;;;;5.02;100.00;102137.53;5224519;28;20032;-68
2021/03/04 09:51:01;;;;;;;143.88;35.95;;;;;;;5.04;100.00;102135.63;5225173;28;20027;-68
2021/03/04 09:53:47;;;;;;;142.48;36.15;;;;;;;5.05;100.00;102136.47;5224398;28;20433;-68
2021/03/04 09:56:20;;;;;;;150.13;34.20;;;;;;;4.99;100.00;102135.06;5224770;28;20419;-68
2021/03/04 09:58:51;;;;;;;134.60;34.92;;;;;;;4.92;100.00;102133.75;5224150;28;20021;-69
2021/03/04 10:01:30;;;;;;;145.80;33.10;;;;;;;4.99;100.00;102134.19;5224828;28;20039;-69
2021/03/04 10:04:04;;;;;;;121.60;31.60;;;;;;;4.97;100.00;102134.31;5223925;28;20098;-69
2021/03/04 10:06:37;;;;;;;138.15;33.13;;;;;;;4.91;100.00;102129.38;5223497;28;20425;-69
2021/03/04 10:09:08;;;;;;;132.10;32.35;;;;;;;4.85;100.00;102141.25;5224332;28;20032;-69
2021/03/04 10:11:39;;;;;;;149.93;33.50;;;;;;;4.81;100.00;102134.41;5224385;28;20104;-69
2021/03/04 10:14:12;;;;;;;113.65;29.50;;;;;;;4.85;100.00;102135.94;5223784;28;20025;-68
2021/03/04 10:16:54;;;;;;;125.63;31.17;;;;;;;4.86;100.00;102132.31;5213993;28;20025;-69
2021/03/04 10:19:24;;;;;;;116.95;29.88;;;;;;;5.03;100.00;102139.22;5224237;28;20389;-69
2021/03/04 10:21:55;;;;;;;110.88;28.73;;;;;;;5.06;100.00;102135.50;5224600;28;20029;-69
2021/03/04 10:24:25;;;;;;;96.65;25.60;;;;;;;5.08;100.00;102134.47;5223501;28;20049;-69
2021/03/04 10:26:58;;;;;;;97.60;26.90;;;;;;;5.06;100.00;102135.50;5224371;28;20112;-69
2021/03/04 10:29:29;;;;;;;94.47;25.65;;;;;;;5.08;100.00;102138.94;5224012;28;20409;-69
2021/03/04 10:32:00;;;;;;;105.47;27.58;;;;;;;5.10;100.00;102142.34;5213966;28;20029;-68
2021/03/04 10:34:31;;;;;;;105.53;26.92;;;;;;;5.11;100.00;102131.59;5218551;28;20043;-69
2021/03/04 10:37:01;;;;;;;95.43;25.55;;;;;;;5.10;100.00;102129.03;5224202;28;20024;-69
2021/03/04 10:39:32;;;;;;;98.95;25.40;;;;;;;5.08;100.00;102125.63;5223927;28;20378;-69
2021/03/04 10:42:02;;;;;;;97.25;24.17;;;;;;;5.13;100.00;102131.50;5224310;28;20460;-69
2021/03/04 10:44:32;;;;;;;102.82;25.25;;;;;;;5.08;100.00;102138.94;5222501;28;20083;-69
2021/03/04 10:47:03;;;;;;;87.70;23.40;;;;;;;5.03;100.00;102128.59;5223885;28;20025;-70
2021/03/04 10:49:34;;;;;;;100.88;27.90;;;;;;;4.89;100.00;102137.44;5223493;28;20505;-69
2021/03/04 10:52:04;;;;;;;90.47;24.67;;;;;;;4.94;100.00;102131.84;5223783;28;20047;-69
2021/03/04 10:54:35;;;;;;;97.07;23.80;;;;;;;4.90;100.00;102135.63;5223287;28;20033;-69
2021/03/04 10:57:05;;;;;;;97.78;25.60;;;;;;;4.91;100.00;102130.22;5223365;28;20447;-69
2021/03/04 10:59:36;;;;;;;86.93;21.88;;;;;;;5.01;100.00;102127.81;5223842;28;20032;-69
2021/03/04 11:02:06;;;;;;;77.25;21.92;;;;;;;4.99;100.00;102134.19;5223242;28;20404;-70
2021/03/04 11:04:37;;;;;;;76.88;22.00;;;;;;;4.97;100.00;102136.09;5222945;28;20435;-69
2021/03/04 11:07:08;;;;;;;79.28;22.00;;;;;;;5.01;100.00;102130.47;5223265;28;20036;-69
2021/03/04 11:09:38;;;;;;;82.53;23.00;;;;;;;5.05;100.00;102128.47;5223022;28;20025;-69
2021/03/04 11:12:09;;;;;;;73.15;21.33;;;;;;;5.06;100.00;102124.88;5223738;28;20035;-70
2021/03/04 11:14:39;;;;;;;78.13;20.33;;;;;;;5.10;100.00;102127.22;5222885;28;20477;-70
2021/03/04 11:17:10;;;;;;;70.30;19.33;;;;;;;5.02;100.00;102140.19;5213483;28;20028;-71
2021/03/04 11:19:42;;;;;;;71.93;19.52;;;;;;;5.05;100.00;102134.66;5223114;28;20025;-71
2021/03/04 11:22:12;;;;;;;70.68;20.25;;;;;;;5.02;100.00;102128.66;5222783;28;20021;-70
2021/03/04 11:24:46;;;;;;;66.72;17.83;;;;;;;5.12;100.00;102129.78;5222190;28;20024;-71